createdAt,value
2023-08-26T00:01:38.633Z,10.00
2023-08-26T00:04:05.710Z,8.88
2023-08-26T00:06:32.445Z,9.82
2023-08-26T00:08:59.138Z,9.88
2023-08-26T00:11:25.857Z,10.23
2023-08-26T00:13:52.576Z,10.10
2023-08-26T00:16:19.278Z,9.80
2023-08-26T00:18:48.380Z,9.50
2023-08-26T00:21:16.070Z,9.50
2023-08-26T00:23:42.914Z,10.70
2023-08-26T00:26:12.401Z,10.00
2023-08-26T00:28:39.125Z,9.77
2023-08-26T00:31:05.816Z,9.55
2023-08-26T00:33:32.540Z,7.95
2023-08-26T00:35:59.191Z,13.57
2023-08-26T00:38:26.089Z,11.93
2023-08-26T00:40:52.824Z,9.32
2023-08-26T00:43:19.446Z,9.95
2023-08-26T00:45:47.585Z,9.15
2023-08-26T00:48:15.542Z,11.60
2023-08-26T00:50:44.898Z,9.10
2023-08-26T00:53:13.563Z,13.93
2023-08-26T00:55:41.680Z,8.57
2023-08-26T00:58:08.861Z,12.82
2023-08-26T01:00:37.552Z,9.77
2023-08-26T01:03:05.289Z,8.88
2023-08-26T01:05:32.131Z,9.90
2023-08-26T01:08:01.088Z,10.63
2023-08-26T01:11:05.637Z,12.95
2023-08-26T01:14:03.463Z,9.80
2023-08-26T01:16:34.549Z,9.45
2023-08-26T01:19:03.450Z,9.15
2023-08-26T01:21:37.392Z,9.40
2023-08-26T01:24:05.448Z,10.02
2023-08-26T01:26:32.133Z,13.18
2023-08-26T01:28:59.067Z,11.43
2023-08-26T01:31:29.530Z,9.13
2023-08-26T01:34:11.571Z,9.63
2023-08-26T01:39:09.275Z,10.77
2023-08-26T01:41:37.019Z,11.05
2023-08-26T01:44:03.955Z,12.02
2023-08-26T01:46:40.377Z,9.98
2023-08-26T01:49:07.231Z,10.32
2023-08-26T01:51:34.223Z,11.73
2023-08-26T01:54:00.920Z,10.15
2023-08-26T01:56:27.666Z,10.50
2023-08-26T01:58:54.232Z,9.25
2023-08-26T02:01:21.091Z,9.55
2023-08-26T02:03:47.908Z,8.10
2023-08-26T02:06:14.595Z,11.27
2023-08-26T02:08:41.209Z,10.05
2023-08-26T02:11:08.071Z,13.40
2023-08-26T02:13:34.694Z,13.18
2023-08-26T02:16:01.377Z,12.38
2023-08-26T02:18:28.061Z,14.35
2023-08-26T02:20:54.770Z,11.60
2023-08-26T02:23:21.438Z,11.15
2023-08-26T02:25:48.102Z,10.73
2023-08-26T02:28:14.742Z,11.95
2023-08-26T02:30:41.533Z,14.77
2023-08-26T02:33:10.202Z,11.70
2023-08-26T02:35:37.039Z,12.43
2023-08-26T02:38:03.956Z,10.25
2023-08-26T02:40:30.634Z,13.07
2023-08-26T02:42:57.387Z,15.60
2023-08-26T02:45:24.037Z,12.23
2023-08-26T02:47:50.831Z,14.45
2023-08-26T02:50:17.526Z,11.02
2023-08-26T02:52:44.144Z,10.18
2023-08-26T02:55:10.826Z,9.70
2023-08-26T02:57:37.615Z,13.48
2023-08-26T03:00:05.724Z,10.43
2023-08-26T03:02:32.480Z,10.82
2023-08-26T03:04:59.236Z,11.68
2023-08-26T03:07:25.916Z,10.68
2023-08-26T03:09:52.586Z,9.73
2023-08-26T03:12:19.215Z,13.93
2023-08-26T03:14:45.952Z,10.00
2023-08-26T03:17:12.592Z,10.68
2023-08-26T03:19:39.189Z,10.63
2023-08-26T03:22:05.831Z,9.40
2023-08-26T03:24:37.016Z,10.82
2023-08-26T03:27:03.643Z,11.30
2023-08-26T03:29:30.833Z,13.27
2023-08-26T03:31:57.421Z,12.07
2023-08-26T03:34:24.064Z,9.02
2023-08-26T03:36:50.734Z,12.82
2023-08-26T03:39:17.448Z,12.93
2023-08-26T03:41:44.135Z,11.85
2023-08-26T03:44:10.824Z,11.77
2023-08-26T03:46:37.449Z,9.27
2023-08-26T03:49:04.180Z,11.75
2023-08-26T03:51:31.210Z,11.73
2023-08-26T03:53:57.816Z,11.52
2023-08-26T03:56:24.410Z,11.52
2023-08-26T03:58:53.214Z,11.38
2023-08-26T04:01:19.842Z,15.25
2023-08-26T04:03:46.532Z,8.93
2023-08-26T04:06:17.185Z,11.15
2023-08-26T04:08:43.828Z,11.95
2023-08-26T04:11:10.454Z,10.63
2023-08-26T04:13:37.331Z,10.60
2023-08-26T04:16:04.832Z,14.77
2023-08-26T04:18:32.532Z,12.15
2023-08-26T04:20:59.169Z,10.35
2023-08-26T04:23:25.801Z,11.18
2023-08-26T04:25:55.452Z,12.10
2023-08-26T04:28:22.164Z,11.02
2023-08-26T04:30:48.902Z,12.02
2023-08-26T04:33:15.624Z,12.02
2023-08-26T04:35:42.316Z,10.63
2023-08-26T04:38:08.918Z,9.48
2023-08-26T04:40:35.595Z,12.00
2023-08-26T04:43:04.947Z,13.90
2023-08-26T04:45:31.889Z,10.70
2023-08-26T04:47:59.064Z,15.40
2023-08-26T04:50:26.902Z,11.82
2023-08-26T04:52:53.491Z,10.85
2023-08-26T04:55:20.268Z,10.63
2023-08-26T04:57:46.940Z,9.48
2023-08-26T05:00:14.651Z,9.48
2023-08-26T05:02:41.442Z,9.43
2023-08-26T05:05:08.402Z,8.65
2023-08-26T05:07:35.123Z,8.95
2023-08-26T05:10:04.601Z,7.35
2023-08-26T05:12:32.016Z,10.45
2023-08-26T05:14:58.575Z,8.43
2023-08-26T05:17:25.318Z,8.25
2023-08-26T05:19:52.674Z,7.20
2023-08-26T05:22:19.357Z,7.43
2023-08-26T05:24:46.106Z,7.72
2023-08-26T05:27:12.856Z,8.35
2023-08-26T05:29:39.507Z,9.40
2023-08-26T05:32:06.284Z,10.75
2023-08-26T05:34:33.169Z,7.35
2023-08-26T05:36:59.946Z,8.63
2023-08-26T05:39:26.546Z,7.38
2023-08-26T05:41:53.219Z,7.22
2023-08-26T05:44:19.814Z,7.10
2023-08-26T05:46:46.401Z,7.85
2023-08-26T05:49:12.997Z,8.20
2023-08-26T05:51:39.689Z,7.95
2023-08-26T05:54:07.125Z,7.18
2023-08-26T05:56:33.931Z,8.23
2023-08-26T05:59:00.550Z,7.28
2023-08-26T06:01:27.222Z,10.43
2023-08-26T06:03:53.951Z,8.35
2023-08-26T06:06:20.718Z,7.43
2023-08-26T06:08:47.353Z,9.25
2023-08-26T06:11:13.981Z,7.68
2023-08-26T06:13:40.618Z,8.50
2023-08-26T06:16:07.252Z,9.57
2023-08-26T06:18:33.910Z,8.77
2023-08-26T06:21:00.545Z,11.85
2023-08-26T06:23:27.253Z,10.40
2023-08-26T06:25:55.130Z,9.65
2023-08-26T06:28:22.271Z,8.73
2023-08-26T06:30:48.969Z,9.95
2023-08-26T06:33:15.890Z,7.55
2023-08-26T06:35:48.725Z,10.10
2023-08-26T06:38:16.248Z,8.10
2023-08-26T06:40:43.045Z,7.57
2023-08-26T06:43:09.973Z,5.93
2023-08-26T06:45:36.763Z,9.07
2023-08-26T06:48:03.582Z,7.47
2023-08-26T06:50:30.354Z,8.13
2023-08-26T06:52:56.929Z,8.82
2023-08-26T06:55:23.830Z,12.10
2023-08-26T06:57:50.508Z,8.82
2023-08-26T07:00:17.369Z,5.80
2023-08-26T07:02:44.020Z,8.52
2023-08-26T07:05:10.683Z,8.60
2023-08-26T07:07:37.697Z,6.20
2023-08-26T07:10:06.229Z,7.70
2023-08-26T07:12:33.075Z,5.93
2023-08-26T07:14:59.831Z,8.85
2023-08-26T07:17:26.485Z,7.70
2023-08-26T07:19:53.094Z,6.22
2023-08-26T07:22:27.191Z,12.93
2023-08-26T07:24:56.539Z,8.27
2023-08-26T07:27:24.464Z,9.32
2023-08-26T07:29:51.266Z,8.43
2023-08-26T07:32:17.937Z,7.90
2023-08-26T07:34:44.547Z,10.07
2023-08-26T07:37:11.233Z,9.65
2023-08-26T07:39:37.891Z,6.75
2023-08-26T07:42:05.216Z,6.22
2023-08-26T07:44:31.859Z,5.68
2023-08-26T07:46:58.749Z,7.10
2023-08-26T07:49:25.442Z,5.10
2023-08-26T07:51:52.069Z,7.47
2023-08-26T07:54:18.831Z,7.95
2023-08-26T07:56:45.456Z,5.60
2023-08-26T07:59:12.085Z,8.43
2023-08-26T08:01:38.688Z,5.60
2023-08-26T08:04:05.564Z,7.25
2023-08-26T08:06:32.310Z,5.68
2023-08-26T08:08:59.045Z,6.00
2023-08-26T08:11:25.705Z,7.93
2023-08-26T08:13:52.575Z,8.00
2023-08-26T08:16:19.295Z,6.30
2023-08-26T08:18:45.938Z,6.18
2023-08-26T08:21:12.636Z,5.55
2023-08-26T08:23:39.562Z,5.90
2023-08-26T08:26:06.245Z,6.18
2023-08-26T08:28:32.882Z,5.47
2023-08-26T08:31:00.048Z,6.70
2023-08-26T08:33:26.867Z,9.38
2023-08-26T08:35:53.494Z,5.72
2023-08-26T08:38:20.148Z,6.75
2023-08-26T08:40:46.838Z,5.38
2023-08-26T08:43:15.066Z,6.28
2023-08-26T08:45:43.439Z,8.05
2023-08-26T08:48:11.571Z,5.15
2023-08-26T08:50:39.017Z,5.15
2023-08-26T08:53:07.513Z,5.80
2023-08-26T08:55:34.231Z,5.28
2023-08-26T08:58:02.640Z,5.68
2023-08-26T09:00:30.766Z,6.45
2023-08-26T09:02:59.599Z,4.57
2023-08-26T09:05:27.213Z,4.32
2023-08-26T09:07:55.704Z,6.07
2023-08-26T09:10:23.768Z,4.72
2023-08-26T09:12:50.692Z,6.40
2023-08-26T09:15:17.593Z,5.32
2023-08-26T09:17:47.686Z,5.18
2023-08-26T09:20:14.567Z,6.13
2023-08-26T09:22:41.822Z,5.90
2023-08-26T09:25:08.834Z,5.57
2023-08-26T09:27:42.379Z,4.82
2023-08-26T09:30:09.949Z,5.80
2023-08-26T09:32:44.558Z,7.45
2023-08-26T09:35:19.316Z,5.68
2023-08-26T09:38:03.718Z,5.53
2023-08-26T09:40:31.024Z,6.70
2023-08-26T09:42:57.782Z,5.63
2023-08-26T09:45:25.263Z,5.97
2023-08-26T09:47:52.784Z,6.22
2023-08-26T09:50:32.444Z,5.13
2023-08-26T09:52:59.493Z,4.70
2023-08-26T09:55:26.927Z,5.90
2023-08-26T09:57:54.404Z,6.32
2023-08-26T10:00:21.742Z,5.60
2023-08-26T10:02:50.740Z,6.18
2023-08-26T10:05:21.989Z,6.90
2023-08-26T10:07:51.037Z,5.35
2023-08-26T10:10:32.773Z,9.82
2023-08-26T10:13:05.748Z,4.57
2023-08-26T10:15:35.007Z,5.03
2023-08-26T10:18:17.297Z,5.40
2023-08-26T10:20:45.559Z,5.55
2023-08-26T10:23:13.685Z,5.00
2023-08-26T10:25:41.126Z,4.38
2023-08-26T10:28:08.288Z,5.18
2023-08-26T10:30:35.130Z,4.28
2023-08-26T10:33:03.298Z,5.45
2023-08-26T10:35:30.105Z,4.93
2023-08-26T10:38:16.932Z,4.43
2023-08-26T10:40:43.627Z,5.75
2023-08-26T10:43:13.352Z,5.43
2023-08-26T10:45:48.301Z,5.18
2023-08-26T10:48:15.137Z,9.52
2023-08-26T10:50:45.411Z,4.88
2023-08-26T10:53:22.861Z,5.57
2023-08-26T10:55:53.297Z,5.22
2023-08-26T10:58:21.907Z,4.22
2023-08-26T11:00:50.889Z,6.43
2023-08-26T11:03:22.253Z,6.10
2023-08-26T11:06:02.717Z,5.00
2023-08-26T11:08:29.649Z,4.60
2023-08-26T11:10:56.307Z,4.28
2023-08-26T11:13:23.914Z,9.40
2023-08-26T11:15:52.398Z,4.63
2023-08-26T11:18:21.964Z,4.82
2023-08-26T11:20:50.123Z,5.30
2023-08-26T11:23:16.885Z,5.03
2023-08-26T11:25:43.656Z,4.47
2023-08-26T11:28:15.350Z,5.45
2023-08-26T11:30:44.192Z,4.82
2023-08-26T11:33:18.779Z,6.18
2023-08-26T11:35:58.786Z,6.93
2023-08-26T11:38:36.875Z,4.85
2023-08-26T11:41:07.688Z,5.15
2023-08-26T11:43:37.802Z,7.93
2023-08-26T11:46:07.951Z,4.70
2023-08-26T11:48:38.300Z,4.72
2023-08-26T11:51:05.679Z,7.22
2023-08-26T11:53:32.514Z,7.00
2023-08-26T11:55:59.329Z,5.00
2023-08-26T11:58:29.231Z,4.97
2023-08-26T12:00:56.867Z,6.25
2023-08-26T12:03:23.580Z,4.90
2023-08-26T12:05:53.871Z,6.35
2023-08-26T12:08:22.593Z,6.97
2023-08-26T12:10:50.825Z,4.35
2023-08-26T12:13:17.983Z,4.45
2023-08-26T12:15:45.365Z,4.85
2023-08-26T12:18:12.759Z,4.45
2023-08-26T12:20:42.178Z,3.97
2023-08-26T12:23:09.127Z,4.30
2023-08-26T12:25:37.751Z,3.60
2023-08-26T12:28:25.134Z,4.07
2023-08-26T12:30:52.801Z,5.47
2023-08-26T12:33:26.296Z,4.75
2023-08-26T12:35:55.893Z,5.03
2023-08-26T12:38:24.232Z,3.88
2023-08-26T12:40:51.411Z,4.85
2023-08-26T12:43:21.339Z,5.55
2023-08-26T12:45:50.457Z,4.45
2023-08-26T12:48:27.973Z,3.75
2023-08-26T12:51:04.828Z,4.10
2023-08-26T12:53:31.509Z,4.90
2023-08-26T12:55:59.394Z,9.18
2023-08-26T12:58:26.673Z,4.57
2023-08-26T13:00:53.454Z,3.35
2023-08-26T13:03:20.374Z,4.15
2023-08-26T13:05:47.251Z,4.15
2023-08-26T13:08:15.278Z,4.28
2023-08-26T13:10:42.039Z,3.53
2023-08-26T13:13:08.692Z,3.80
2023-08-26T13:15:39.395Z,4.05
2023-08-26T13:18:06.251Z,5.72
2023-08-26T13:20:32.925Z,5.10
2023-08-26T13:22:59.646Z,3.88
2023-08-26T13:25:26.312Z,4.32
2023-08-26T13:27:52.966Z,6.40
2023-08-26T13:30:19.617Z,4.70
2023-08-26T13:32:46.318Z,3.70
2023-08-26T13:35:14.020Z,4.05
2023-08-26T13:37:42.059Z,5.00
2023-08-26T13:40:09.196Z,4.13
2023-08-26T13:42:35.844Z,5.00
2023-08-26T13:45:02.488Z,4.15
2023-08-26T13:47:29.212Z,3.53
2023-08-26T13:49:55.911Z,3.33
2023-08-26T13:52:22.583Z,4.60
2023-08-26T13:54:49.234Z,5.18
2023-08-26T13:57:17.410Z,3.78
2023-08-26T13:59:44.088Z,4.10
2023-08-26T14:02:10.770Z,5.93
2023-08-26T14:04:37.677Z,4.47
2023-08-26T14:07:04.587Z,5.05
2023-08-26T14:09:31.230Z,5.35
2023-08-26T14:11:59.799Z,4.63
2023-08-26T14:14:26.441Z,4.00
2023-08-26T14:16:53.195Z,3.95
2023-08-26T14:19:19.866Z,4.85
2023-08-26T14:21:46.511Z,4.10
2023-08-26T14:24:13.153Z,4.43
2023-08-26T14:26:40.264Z,3.92
2023-08-26T14:29:07.189Z,4.75
2023-08-26T14:31:33.841Z,4.18
2023-08-26T14:34:00.568Z,4.78
2023-08-26T14:36:27.228Z,4.70
2023-08-26T14:38:55.062Z,5.75
2023-08-26T14:41:21.709Z,4.50
2023-08-26T14:43:49.811Z,5.45
2023-08-26T14:46:16.511Z,8.27
2023-08-26T14:48:43.355Z,5.72
2023-08-26T14:51:10.035Z,5.10
2023-08-26T14:53:37.875Z,3.85
2023-08-26T14:56:04.735Z,7.57
2023-08-26T14:58:31.493Z,6.78
2023-08-26T15:00:58.245Z,10.15
2023-08-26T15:03:25.472Z,10.02
2023-08-26T15:05:59.347Z,5.63
2023-08-26T15:08:26.298Z,5.18
2023-08-26T15:10:53.226Z,4.68
2023-08-26T15:13:22.135Z,5.20
2023-08-26T15:15:49.560Z,8.00
2023-08-26T15:18:19.193Z,5.70
2023-08-26T15:20:46.984Z,5.85
2023-08-26T15:23:15.637Z,6.30
2023-08-26T15:25:44.769Z,7.20
2023-08-26T15:28:11.769Z,5.43
2023-08-26T15:30:38.524Z,5.20
2023-08-26T15:33:05.588Z,5.63
2023-08-26T15:35:32.622Z,6.10
2023-08-26T15:37:59.727Z,4.80
2023-08-26T15:40:26.559Z,5.40
2023-08-26T15:42:56.036Z,6.55
2023-08-26T15:45:23.054Z,4.93
2023-08-26T15:47:51.319Z,5.45
2023-08-26T15:50:18.205Z,6.97
2023-08-26T15:52:44.921Z,6.80
2023-08-26T15:55:11.694Z,8.80
2023-08-26T15:57:38.281Z,6.30
2023-08-26T16:00:05.396Z,5.75
2023-08-26T16:02:32.134Z,6.38
2023-08-26T16:04:58.896Z,12.38
2023-08-26T16:07:25.587Z,7.53
2023-08-26T16:09:52.256Z,6.78
2023-08-26T16:12:18.941Z,8.48
2023-08-26T16:14:45.597Z,6.25
2023-08-26T16:17:12.455Z,7.53
2023-08-26T16:19:39.167Z,7.13
2023-08-26T16:22:05.858Z,6.30
2023-08-26T16:24:32.506Z,5.38
2023-08-26T16:26:59.151Z,7.75
2023-08-26T16:29:25.820Z,5.47
2023-08-26T16:31:52.499Z,7.80
2023-08-26T16:34:19.627Z,7.35
2023-08-26T16:36:46.384Z,7.50
2023-08-26T16:39:14.216Z,8.70
2023-08-26T16:41:41.006Z,6.30
2023-08-26T16:44:07.658Z,8.45
2023-08-26T16:46:34.346Z,8.77
2023-08-26T16:49:01.100Z,7.78
2023-08-26T16:51:27.751Z,7.03
2023-08-26T16:53:54.337Z,9.40
2023-08-26T16:56:20.979Z,8.30
2023-08-26T16:58:47.862Z,8.73
2023-08-26T17:01:14.521Z,8.70
2023-08-26T17:03:41.247Z,7.72
2023-08-26T17:06:09.304Z,7.97
2023-08-26T17:08:36.662Z,9.18
2023-08-26T17:11:04.898Z,7.30
2023-08-26T17:13:31.839Z,9.85
2023-08-26T17:15:58.886Z,8.73
2023-08-26T17:18:25.589Z,5.85
2023-08-26T17:20:52.284Z,7.45
2023-08-26T17:23:18.945Z,9.45
2023-08-26T17:25:45.659Z,8.95
2023-08-26T17:28:12.381Z,7.95
2023-08-26T17:30:39.300Z,10.65
2023-08-26T17:33:06.455Z,7.75
2023-08-26T17:35:37.422Z,8.20
2023-08-26T17:38:10.597Z,8.15
2023-08-26T17:40:48.109Z,8.88
2023-08-26T17:43:15.190Z,10.23
2023-08-26T17:45:45.796Z,7.97
2023-08-26T17:48:13.153Z,7.87
2023-08-26T17:50:54.036Z,10.50
2023-08-26T17:53:21.152Z,11.73
2023-08-26T17:55:47.953Z,8.10
2023-08-26T17:58:15.611Z,10.93
2023-08-26T18:00:43.616Z,8.90
2023-08-26T18:03:11.847Z,6.82
2023-08-26T18:05:39.367Z,8.70
2023-08-26T18:08:07.257Z,8.13
2023-08-26T18:10:35.185Z,6.30
2023-08-26T18:13:07.882Z,8.95
2023-08-26T18:15:36.107Z,7.47
2023-08-26T18:18:03.805Z,9.82
2023-08-26T18:20:30.698Z,8.65
2023-08-26T18:22:57.719Z,10.95
2023-08-26T18:25:24.697Z,9.45
2023-08-26T18:27:52.776Z,6.95
2023-08-26T18:30:19.789Z,9.80
2023-08-26T18:32:46.558Z,9.48
2023-08-26T18:35:13.314Z,6.90
2023-08-26T18:37:40.432Z,8.52
2023-08-26T18:40:07.589Z,8.63
2023-08-26T18:42:34.722Z,10.00
2023-08-26T18:45:01.926Z,10.63
2023-08-26T18:47:28.639Z,7.13
2023-08-26T18:49:55.340Z,7.47
2023-08-26T18:52:22.100Z,7.07
2023-08-26T18:54:48.706Z,5.70
2023-08-26T18:57:15.500Z,5.95
2023-08-26T18:59:42.293Z,6.47
2023-08-26T19:02:09.046Z,6.03
2023-08-26T19:04:36.752Z,6.63
2023-08-26T19:07:03.747Z,8.38
2023-08-26T19:09:31.473Z,5.50
2023-08-26T19:11:58.569Z,5.60
2023-08-26T19:14:25.173Z,5.63
2023-08-26T19:16:52.022Z,7.10
2023-08-26T19:19:18.775Z,6.35
2023-08-26T19:21:45.469Z,10.35
2023-08-26T19:24:12.207Z,6.78
2023-08-26T19:26:38.990Z,6.60
2023-08-26T19:29:05.661Z,9.80
2023-08-26T19:31:32.371Z,5.68
2023-08-26T19:33:59.007Z,5.10
2023-08-26T19:36:26.910Z,5.40
2023-08-26T19:38:53.653Z,7.65
2023-08-26T19:41:20.465Z,4.35
2023-08-26T19:43:47.444Z,4.65
2023-08-26T19:46:14.232Z,6.50
2023-08-26T19:48:54.726Z,7.85
2023-08-26T19:51:23.028Z,7.20
2023-08-26T19:53:49.739Z,7.68
2023-08-26T19:56:16.323Z,10.23
2023-08-26T19:58:43.021Z,10.30
2023-08-26T20:01:09.675Z,8.85
2023-08-26T20:03:36.516Z,8.20
2023-08-26T20:06:03.384Z,6.60
2023-08-26T20:08:29.994Z,6.38
2023-08-26T20:10:56.717Z,9.23
2023-08-26T20:13:23.510Z,7.03
2023-08-26T20:15:50.164Z,6.05
2023-08-26T20:18:16.791Z,10.07
2023-08-26T20:20:43.417Z,6.90
2023-08-26T20:23:10.103Z,5.78
2023-08-26T20:25:47.226Z,5.88
2023-08-26T20:28:15.015Z,6.18
2023-08-26T20:30:41.708Z,7.45
2023-08-26T20:33:08.429Z,8.70
2023-08-26T20:35:35.175Z,8.45
2023-08-26T20:38:01.811Z,8.45
2023-08-26T20:40:28.805Z,9.13
2023-08-26T20:42:55.435Z,8.52
2023-08-26T20:45:22.140Z,9.68
2023-08-26T20:47:48.826Z,9.30
2023-08-26T20:50:15.496Z,8.85
2023-08-26T20:52:42.246Z,10.10
2023-08-26T20:55:09.207Z,8.82
2023-08-26T20:57:35.925Z,9.57
2023-08-26T21:00:02.795Z,8.63
2023-08-26T21:02:29.615Z,12.80
2023-08-26T21:04:56.423Z,8.80
2023-08-26T21:07:23.275Z,8.45
2023-08-26T21:09:49.983Z,8.75
2023-08-26T21:12:16.730Z,10.00
2023-08-26T21:14:43.406Z,8.95
2023-08-26T21:17:10.052Z,13.38
2023-08-26T21:19:36.705Z,10.27
2023-08-26T21:22:03.426Z,12.60
2023-08-26T21:24:30.104Z,12.80
2023-08-26T21:26:56.794Z,10.63
2023-08-26T21:29:23.974Z,9.40
2023-08-26T21:31:50.863Z,8.98
2023-08-26T21:34:18.175Z,9.25
2023-08-26T21:36:44.995Z,9.40
2023-08-26T21:39:11.642Z,8.70
2023-08-26T21:41:38.336Z,9.02
2023-08-26T21:44:05.355Z,9.43
2023-08-26T21:46:32.514Z,15.07
2023-08-26T21:49:02.431Z,9.25
2023-08-26T21:51:29.089Z,6.78
2023-08-26T21:53:56.442Z,5.97
2023-08-26T21:56:23.345Z,6.40
2023-08-26T21:58:50.244Z,5.68
2023-08-26T22:01:16.885Z,7.50
2023-08-26T22:03:43.519Z,6.00
2023-08-26T22:06:10.195Z,5.78
2023-08-26T22:08:37.277Z,8.65
2023-08-26T22:11:07.925Z,6.85
2023-08-26T22:13:34.847Z,10.90
2023-08-26T22:16:01.540Z,9.30
2023-08-26T22:18:28.122Z,9.50
2023-08-26T22:20:55.167Z,8.48
2023-08-26T22:23:21.866Z,9.95
2023-08-26T22:25:48.566Z,9.43
2023-08-26T22:28:15.777Z,10.30
2023-08-26T22:30:42.907Z,11.13
2023-08-26T22:33:10.111Z,9.32
2023-08-26T22:35:37.028Z,9.70
2023-08-26T22:38:03.811Z,8.13
2023-08-26T22:40:30.452Z,10.43
2023-08-26T22:42:57.576Z,10.02
2023-08-26T22:45:24.661Z,9.93
2023-08-26T22:47:51.399Z,8.90
2023-08-26T22:50:18.210Z,10.52
2023-08-26T22:52:44.861Z,13.00
2023-08-26T22:55:11.587Z,8.85
2023-08-26T22:57:38.269Z,8.02
2023-08-26T23:00:08.071Z,10.60
2023-08-26T23:02:34.917Z,8.45
2023-08-26T23:05:01.726Z,11.18
2023-08-26T23:07:29.373Z,6.85
2023-08-26T23:09:59.974Z,8.95
2023-08-26T23:12:27.180Z,10.63
2023-08-26T23:14:55.657Z,9.90
2023-08-26T23:17:25.835Z,9.65
2023-08-26T23:19:52.557Z,9.38
2023-08-26T23:22:20.081Z,9.05
2023-08-26T23:24:46.707Z,8.18
2023-08-26T23:27:13.732Z,11.07
2023-08-26T23:29:40.440Z,12.57
2023-08-26T23:32:07.626Z,8.32
2023-08-26T23:34:34.568Z,10.05
2023-08-26T23:37:01.182Z,11.60
2023-08-26T23:39:27.848Z,10.55
2023-08-26T23:41:54.544Z,9.90
2023-08-26T23:44:21.249Z,8.90
2023-08-26T23:46:47.878Z,10.43
2023-08-26T23:49:14.570Z,10.07
2023-08-26T23:51:41.206Z,8.80
2023-08-26T23:54:08.850Z,10.98
2023-08-26T23:56:35.538Z,10.43
2023-08-26T23:59:02.420Z,9.82
